Time;durP1;ratioP1;P1;durP2;ratioP2;P2;SDS_P1;SDS_P2;PMS_P1;PMS_P2;Temp;Humidity;BMP_temperature;BMP_pressure;BME280_temperature;BME280_humidity;BME280_pressure;Samples;Min_cycle;Max_cycle;Signal;HPM_P1;HPM_P2
2022/04/05 00:02:20;;;;;;;0.00;0.00;;;;;;;10.85;55.60;98846.56;6278571;22;20053;-92
2022/04/05 00:04:46;;;;;;;0.00;0.00;;;;;;;10.85;55.34;98841.22;6278220;22;20004;-94
2022/04/05 00:07:12;;;;;;;0.00;0.00;;;;;;;10.89;55.24;98844.13;6278401;22;20038;-87
2022/04/05 00:09:37;;;;;;;0.00;0.00;;;;;;;10.91;55.56;98833.13;6277540;22;20086;-78
2022/04/05 00:12:03;;;;;;;0.00;0.00;;;;;;;10.87;55.63;98838.25;6277355;22;20015;-77
2022/04/05 00:14:29;;;;;;;0.00;0.00;;;;;;;10.87;55.64;98835.56;6276869;22;20007;-77
2022/04/05 00:16:54;;;;;;;0.00;0.00;;;;;;;10.80;55.88;98838.59;6274868;22;20021;-77
2022/04/05 00:19:21;;;;;;;0.00;0.00;;;;;;;10.80;55.73;98827.88;6275050;22;20003;-76
2022/04/05 00:21:48;;;;;;;0.00;0.00;;;;;;;10.81;55.47;98829.47;6277436;22;20060;-76
2022/04/05 00:24:14;;;;;;;0.00;0.00;;;;;;;10.79;55.55;98828.97;6277665;22;20010;-76
2022/04/05 00:26:40;;;;;;;0.00;0.00;;;;;;;10.81;55.56;98826.00;6277442;22;19999;-76
2022/04/05 00:29:05;;;;;;;0.00;0.00;;;;;;;10.80;54.96;98832.44;6277490;22;20318;-76
2022/04/05 00:31:31;;;;;;;0.17;0.17;;;;;;;10.82;55.19;98839.09;6277345;22;20437;-82
2022/04/05 00:33:57;;;;;;;0.00;0.00;;;;;;;10.82;55.47;98835.63;6277261;22;20478;-79
2022/04/05 00:36:22;;;;;;;0.00;0.00;;;;;;;10.81;55.37;98829.47;6277642;22;20095;-81
2022/04/05 00:38:48;;;;;;;0.00;0.00;;;;;;;10.81;56.18;98839.38;6277098;22;20517;-82
2022/04/05 00:41:14;;;;;;;0.00;0.00;;;;;;;10.77;56.05;98823.09;6277060;22;20007;-77
2022/04/05 00:43:40;;;;;;;0.00;0.00;;;;;;;10.78;56.31;98823.88;6277169;22;20043;-83
2022/04/05 00:46:06;;;;;;;0.00;0.00;;;;;;;10.78;56.78;98819.34;6277303;22;20010;-81
2022/04/05 00:48:57;;;;;;;0.05;0.05;;;;;;;10.75;56.53;98811.09;6277412;22;20444;-76
2022/04/05 00:51:24;;;;;;;0.00;0.00;;;;;;;10.78;56.63;98814.00;6277463;22;19999;-77
2022/04/05 00:54:05;;;;;;;0.00;0.00;;;;;;;10.76;57.01;98805.44;6277251;22;20060;-75
2022/04/05 00:56:34;;;;;;;0.00;0.00;;;;;;;10.78;57.24;98805.16;6276844;22;20014;-75
2022/04/05 00:59:00;;;;;;;0.00;0.00;;;;;;;10.77;57.19;98811.59;6302351;22;20057;-76
2022/04/05 01:01:27;;;;;;;0.10;0.10;;;;;;;10.80;56.92;98811.03;6273436;22;20010;-74
2022/04/05 01:03:53;;;;;;;0.10;0.10;;;;;;;10.76;57.45;98793.97;6277092;22;20007;-76
2022/04/05 01:06:26;;;;;;;0.00;0.00;;;;;;;10.73;57.36;98789.97;6277398;22;20498;-75
2022/04/05 01:08:53;;;;;;;0.00;0.00;;;;;;;10.79;57.32;98793.38;6304502;22;20034;-75
2022/04/05 01:11:19;;;;;;;0.00;0.00;;;;;;;10.80;56.67;98792.31;6277080;22;20463;-75
2022/04/05 01:13:44;;;;;;;0.00;0.00;;;;;;;10.77;57.30;98791.00;6303354;22;19999;-75
2022/04/05 01:16:11;;;;;;;0.00;0.00;;;;;;;10.78;57.45;98786.44;6303571;22;20018;-75
2022/04/05 01:18:37;;;;;;;0.00;0.00;;;;;;;10.79;57.18;98777.31;6276280;22;20010;-76
2022/04/05 01:21:02;;;;;;;0.00;0.00;;;;;;;10.77;57.12;98780.28;6303111;22;20019;-77
2022/04/05 01:23:28;;;;;;;0.00;0.00;;;;;;;10.79;57.04;98780.00;6276786;22;20052;-77
2022/04/05 01:25:55;;;;;;;0.00;0.00;;;;;;;10.72;57.05;98781.13;6276382;22;20322;-74
2022/04/05 01:28:20;;;;;;;0.00;0.00;;;;;;;10.72;57.01;98780.34;6276891;22;20064;-76
2022/04/05 01:30:46;;;;;;;0.00;0.00;;;;;;;10.71;57.33;98781.44;6276325;22;20057;-76
2022/04/05 01:33:11;;;;;;;0.00;0.00;;;;;;;10.69;57.23;98781.72;6304428;22;20010;-76
2022/04/05 01:35:39;;;;;;;0.00;0.00;;;;;;;10.65;57.05;98779.88;6276796;22;20064;-76
2022/04/05 01:38:06;;;;;;;0.00;0.00;;;;;;;10.60;57.25;98769.25;6276850;22;20022;-80
2022/04/05 01:40:32;;;;;;;0.00;0.00;;;;;;;10.56;57.56;98779.72;6276922;22;20086;-78
2022/04/05 01:42:58;;;;;;;0.00;0.00;;;;;;;10.52;57.23;98767.97;6273631;22;20466;-79
2022/04/05 01:45:23;;;;;;;0.00;0.00;;;;;;;10.50;57.55;98765.59;6274897;22;20440;-79
2022/04/05 01:47:49;;;;;;;0.00;0.00;;;;;;;10.49;57.28;98766.66;6276945;22;20041;-78
2022/04/05 01:50:14;;;;;;;0.20;0.20;;;;;;;10.49;56.90;98772.00;6304433;22;20029;-78
2022/04/05 01:52:40;;;;;;;0.00;0.00;;;;;;;10.48;56.62;98767.72;6304607;22;20044;-78
2022/04/05 01:55:06;;;;;;;0.00;0.00;;;;;;;10.49;56.51;98768.53;6276524;22;20045;-79
2022/04/05 01:57:32;;;;;;;0.00;0.00;;;;;;;10.48;55.85;98761.59;6276606;22;20015;-80
2022/04/05 01:59:57;;;;;;;0.00;0.00;;;;;;;10.43;55.90;98758.97;6276689;22;20013;-79
2022/04/05 02:02:23;;;;;;;0.00;0.00;;;;;;;10.43;56.04;98758.97;6276975;22;20011;-82
2022/04/05 02:04:48;;;;;;;0.00;0.00;;;;;;;10.38;55.94;98752.59;6276923;22;20004;-80
2022/04/05 02:07:16;;;;;;;0.00;0.00;;;;;;;10.36;55.78;98757.44;6277165;22;20121;-78
2022/04/05 02:09:43;;;;;;;0.10;0.10;;;;;;;10.36;55.78;98762.78;6304036;22;20007;-86
2022/04/05 02:12:09;;;;;;;0.00;0.00;;;;;;;10.29;55.87;98758.78;6276659;22;20003;-87
2022/04/05 02:14:35;;;;;;;0.00;0.00;;;;;;;10.21;56.34;98757.53;6276737;22;20034;-79
2022/04/05 02:17:01;;;;;;;0.00;0.00;;;;;;;10.17;56.31;98753.84;6303569;22;20078;-81
2022/04/05 02:19:27;;;;;;;0.00;0.00;;;;;;;10.15;56.12;98754.09;6276916;22;20011;-79
2022/04/05 02:21:52;;;;;;;0.00;0.00;;;;;;;10.13;56.01;98756.25;6276075;22;20037;-79
2022/04/05 02:24:18;;;;;;;0.00;0.00;;;;;;;10.13;55.90;98756.25;6275459;22;20007;-79
2022/04/05 02:26:43;;;;;;;0.00;0.00;;;;;;;10.06;55.90;98753.91;6272615;22;20011;-80
2022/04/05 02:29:09;;;;;;;0.00;0.00;;;;;;;10.04;56.66;98755.25;6276424;22;20081;-79
2022/04/05 02:31:34;;;;;;;0.00;0.00;;;;;;;10.04;56.54;98764.06;6276912;22;20090;-79
2022/04/05 02:34:00;;;;;;;0.00;0.00;;;;;;;10.01;56.61;98753.13;6276642;22;20349;-79
2022/04/05 02:36:26;;;;;;;0.00;0.00;;;;;;;9.95;57.30;98755.06;6278540;22;20339;-79
2022/04/05 02:38:51;;;;;;;0.00;0.00;;;;;;;9.81;57.44;98756.75;6278556;22;20014;-79
2022/04/05 02:41:17;;;;;;;0.00;0.00;;;;;;;9.75;57.71;98758.66;6278486;22;20000;-79
2022/04/05 02:43:42;;;;;;;0.00;0.00;;;;;;;9.73;57.94;98760.84;6278451;22;20007;-80
2022/04/05 02:46:11;;;;;;;0.00;0.00;;;;;;;9.71;58.07;98750.41;6278415;22;20007;-80
2022/04/05 02:48:43;;;;;;;0.10;0.10;;;;;;;9.72;58.37;98754.69;6278836;22;20010;-80
2022/04/05 02:51:11;;;;;;;0.00;0.00;;;;;;;9.62;58.59;98749.41;6278245;22;20451;-80
2022/04/05 02:53:36;;;;;;;0.00;0.00;;;;;;;9.61;59.06;98750.47;6278680;22;20004;-81
2022/04/05 02:56:02;;;;;;;0.00;0.00;;;;;;;9.55;59.07;98747.03;6278132;22;20061;-82
2022/04/05 02:58:27;;;;;;;0.20;0.20;;;;;;;9.50;59.98;98749.75;6252591;22;20532;-80
2022/04/05 03:00:53;;;;;;;0.10;0.10;;;;;;;9.43;60.29;98750.03;6277670;22;20021;-78
2022/04/05 03:03:18;;;;;;;0.00;0.00;;;;;;;9.44;59.91;98751.63;6278385;22;20026;-77
2022/04/05 03:05:44;;;;;;;0.15;0.15;;;;;;;9.44;59.84;98754.31;6277845;22;20003;-82
2022/04/05 03:08:09;;;;;;;0.00;0.00;;;;;;;9.46;59.69;98748.72;6274948;22;20014;-81
2022/04/05 03:10:34;;;;;;;0.00;0.00;;;;;;;9.49;59.80;98750.81;6275742;22;20022;-78
2022/04/05 03:13:01;;;;;;;0.10;0.10;;;;;;;9.51;59.79;98747.84;6277650;22;20003;-78
2022/04/05 03:15:27;;;;;;;0.00;0.00;;;;;;;9.54;59.56;98750.78;6278149;22;20023;-78
2022/04/05 03:17:55;;;;;;;0.10;0.10;;;;;;;9.55;59.58;98752.38;6277883;22;20029;-78
2022/04/05 03:20:20;;;;;;;0.00;0.00;;;;;;;9.55;59.58;98754.25;6278176;22;20027;-79
2022/04/05 03:22:46;;;;;;;0.00;0.00;;;;;;;9.58;59.56;98759.84;6278047;22;20336;-78
2022/04/05 03:25:12;;;;;;;0.00;0.00;;;;;;;9.57;59.72;98750.25;6304459;22;20431;-75
2022/04/05 03:27:41;;;;;;;0.00;0.00;;;;;;;9.59;59.54;98761.44;6305075;22;20445;-79
2022/04/05 03:30:09;;;;;;;0.00;0.00;;;;;;;9.59;59.76;98756.09;6277115;22;20007;-78
2022/04/05 03:32:34;;;;;;;0.00;0.00;;;;;;;9.62;59.77;98757.44;6277709;22;20087;-78
2022/04/05 03:35:00;;;;;;;0.10;0.10;;;;;;;9.64;59.80;98763.25;6305363;22;20082;-78
2022/04/05 03:37:25;;;;;;;0.00;0.00;;;;;;;9.63;59.58;98764.38;6277815;22;20421;-78
2022/04/05 03:39:50;;;;;;;0.00;0.00;;;;;;;9.58;60.14;98767.03;6277502;22;20018;-79
2022/04/05 03:42:16;;;;;;;0.00;0.00;;;;;;;9.53;59.79;98759.06;6277433;22;20090;-77
2022/04/05 03:44:41;;;;;;;0.00;0.00;;;;;;;9.48;60.48;98764.44;6277930;22;20007;-77
2022/04/05 03:47:07;;;;;;;0.20;0.20;;;;;;;9.47;60.49;98758.28;6304464;22;20007;-77
2022/04/05 03:49:32;;;;;;;0.00;0.00;;;;;;;9.36;60.85;98757.56;6277727;22;20598;-77
2022/04/05 03:51:58;;;;;;;0.00;0.00;;;;;;;9.35;60.57;98755.16;6272711;22;20015;-79
2022/04/05 03:54:23;;;;;;;0.00;0.00;;;;;;;9.28;60.99;98761.59;6304980;22;20007;-78
2022/04/05 03:56:48;;;;;;;0.00;0.00;;;;;;;9.31;61.17;98762.91;6277505;22;20015;-79
2022/04/05 03:59:14;;;;;;;0.05;0.05;;;;;;;9.31;61.41;98756.78;6277714;22;20007;-79
2022/04/05 04:01:39;;;;;;;0.00;0.00;;;;;;;9.27;61.57;98764.53;6277767;22;20000;-78
2022/04/05 04:04:05;;;;;;;0.28;0.28;;;;;;;9.26;61.80;98757.59;6304702;22;20007;-78
2022/04/05 04:06:30;;;;;;;0.00;0.00;;;;;;;9.21;61.93;98765.63;6304849;22;20440;-78
2022/04/05 04:08:56;;;;;;;0.00;0.00;;;;;;;9.29;62.00;98767.75;6304475;22;20079;-82
2022/04/05 04:11:21;;;;;;;0.00;0.00;;;;;;;9.28;61.99;98761.59;6277796;22;20010;-80
2022/04/05 04:13:46;;;;;;;0.00;0.00;;;;;;;9.27;62.30;98761.88;6277347;22;20011;-81
2022/04/05 04:16:12;;;;;;;0.00;0.00;;;;;;;9.23;62.34;98764.28;6277130;22;20499;-80
2022/04/05 04:18:38;;;;;;;0.00;0.00;;;;;;;9.23;62.31;98766.16;6277848;22;20375;-79
2022/04/05 04:21:04;;;;;;;0.00;0.00;;;;;;;9.20;62.68;98759.47;6277387;22;20361;-79
2022/04/05 04:23:30;;;;;;;0.00;0.00;;;;;;;9.22;62.77;98757.34;6277527;22;20007;-78
2022/04/05 04:25:56;;;;;;;0.00;0.00;;;;;;;9.23;62.59;98756.28;6276418;22;20014;-78
2022/04/05 04:28:21;;;;;;;0.20;0.20;;;;;;;9.18;63.08;98744.81;6277093;22;20077;-78
2022/04/05 04:30:47;;;;;;;0.00;0.00;;;;;;;9.21;62.83;98752.28;6277044;22;20073;-81
2022/04/05 04:33:13;;;;;;;0.00;0.00;;;;;;;9.22;62.89;98754.69;6274300;22;20467;-78
2022/04/05 04:35:41;;;;;;;0.00;0.00;;;;;;;9.22;62.98;98754.69;6274896;22;19999;-76
2022/04/05 04:38:07;;;;;;;0.00;0.00;;;;;;;9.18;63.26;98748.31;6276284;22;20037;-74
2022/04/05 04:40:34;;;;;;;0.00;0.00;;;;;;;9.18;63.39;98755.50;6276845;22;20253;-75
2022/04/05 04:42:59;;;;;;;0.00;0.00;;;;;;;9.13;63.48;98751.00;6277150;22;20003;-76
2022/04/05 04:45:27;;;;;;;0.00;0.00;;;;;;;9.10;63.31;98746.19;6277369;22;20051;-74
2022/04/05 04:47:53;;;;;;;0.00;0.00;;;;;;;9.11;63.83;98747.81;6304745;22;20035;-74
2022/04/05 04:50:18;;;;;;;0.00;0.00;;;;;;;9.17;63.57;98753.91;6303816;22;20441;-76
2022/04/05 04:52:44;;;;;;;0.20;0.20;;;;;;;9.21;63.60;98747.75;6304296;22;20065;-75
2022/04/05 04:55:09;;;;;;;0.00;0.00;;;;;;;9.18;63.71;98752.84;6303957;22;20026;-76
2022/04/05 04:57:35;;;;;;;0.00;0.00;;;;;;;9.25;63.99;98753.34;6304381;22;20014;-75
2022/04/05 05:00:00;;;;;;;0.40;0.40;;;;;;;9.28;63.89;98744.78;6303486;22;20003;-76
2022/04/05 05:02:26;;;;;;;0.00;0.00;;;;;;;9.31;64.18;98757.56;6304039;22;20508;-76
2022/04/05 05:04:52;;;;;;;0.00;0.00;;;;;;;9.28;63.61;98764.25;6304522;22;20003;-75
2022/04/05 05:07:17;;;;;;;0.00;0.00;;;;;;;9.28;64.23;98750.13;6304488;22;20026;-75
2022/04/05 05:09:44;;;;;;;0.00;0.00;;;;;;;9.32;64.01;98747.72;6304241;22;20011;-76
2022/04/05 05:12:10;;;;;;;0.00;0.00;;;;;;;9.40;63.96;98758.59;6304156;22;20003;-75
2022/04/05 05:14:39;;;;;;;0.00;0.00;;;;;;;9.39;64.20;98762.34;6277120;22;20034;-74
2022/04/05 05:17:06;;;;;;;0.00;0.00;;;;;;;9.45;64.20;98769.25;6272778;22;20027;-74
2022/04/05 05:19:33;;;;;;;0.00;0.00;;;;;;;9.50;63.96;98767.66;6302482;22;20457;-73
2022/04/05 05:21:59;;;;;;;0.75;0.65;;;;;;;9.55;63.98;98776.41;6276375;22;20081;-74
2022/04/05 05:24:24;;;;;;;0.00;0.00;;;;;;;9.58;63.71;98773.19;6276694;22;20007;-73
2022/04/05 05:26:50;;;;;;;0.00;0.00;;;;;;;9.67;63.62;98772.63;6276917;22;20348;-73
2022/04/05 05:29:16;;;;;;;0.00;0.00;;;;;;;9.70;63.08;98772.84;6276505;22;20022;-73
2022/04/05 05:31:42;;;;;;;0.20;0.20;;;;;;;9.78;63.02;98774.16;6304147;22;20003;-73
2022/04/05 05:34:07;;;;;;;0.00;0.00;;;;;;;9.85;62.82;98771.97;6276460;22;20474;-73
2022/04/05 05:36:33;;;;;;;0.00;0.00;;;;;;;9.92;62.62;98768.97;6276780;22;20018;-74
2022/04/05 05:38:59;;;;;;;0.00;0.00;;;;;;;9.94;62.73;98774.84;6276373;22;20068;-73
2022/04/05 05:41:25;;;;;;;0.00;0.00;;;;;;;9.99;62.56;98776.69;6304126;22;20003;-73
2022/04/05 05:43:50;;;;;;;0.30;0.30;;;;;;;9.99;62.60;98779.34;6276952;22;20159;-73
2022/04/05 05:46:17;;;;;;;0.10;0.10;;;;;;;9.99;62.43;98779.34;6276518;22;20000;-73
2022/04/05 05:48:42;;;;;;;0.00;0.00;;;;;;;9.98;63.10;98767.84;6277188;22;20007;-73
2022/04/05 05:51:09;;;;;;;0.25;0.25;;;;;;;10.05;62.50;98776.34;6276179;22;20094;-74
2022/04/05 05:53:35;;;;;;;0.10;0.10;;;;;;;10.10;63.27;98772.84;6303932;22;20003;-73
2022/04/05 05:56:00;;;;;;;0.00;0.00;;;;;;;10.20;62.73;98782.66;6276123;22;20060;-73
2022/04/05 05:58:27;;;;;;;0.00;0.00;;;;;;;10.29;62.50;98772.16;6273562;22;20019;-73
2022/04/05 06:00:52;;;;;;;0.00;0.00;;;;;;;10.28;62.10;98763.34;6273143;22;20007;-75
2022/04/05 06:03:18;;;;;;;0.30;0.30;;;;;;;10.31;62.39;98765.44;6303365;22;20421;-75
2022/04/05 06:05:43;;;;;;;0.13;0.10;;;;;;;10.31;62.71;98759.31;6303182;22;20071;-76
2022/04/05 06:08:10;;;;;;;0.30;0.30;;;;;;;10.31;62.62;98759.31;6303506;22;20030;-75
2022/04/05 06:10:35;;;;;;;0.20;0.20;;;;;;;10.33;62.53;98755.28;6304505;22;20003;-76
2022/04/05 06:13:01;;;;;;;0.00;0.00;;;;;;;10.30;62.79;98761.22;6305229;22;20000;-76
2022/04/05 06:15:28;;;;;;;0.20;0.20;;;;;;;10.33;62.76;98767.88;6305694;22;20003;-76
2022/04/05 06:17:54;;;;;;;0.10;0.10;;;;;;;10.40;62.63;98765.69;6305608;22;20003;-76
2022/04/05 06:20:21;;;;;;;0.00;0.00;;;;;;;10.38;61.91;98767.84;6305284;22;20546;-75
2022/04/05 06:22:51;;;;;;;0.00;0.00;;;;;;;10.41;62.23;98770.75;6277919;22;20345;-75
2022/04/05 06:25:21;;;;;;;0.20;0.20;;;;;;;10.43;62.03;98769.66;6277705;22;20003;-75
2022/04/05 06:27:47;;;;;;;0.00;0.00;;;;;;;10.43;62.22;98769.66;6305310;22;20030;-75
2022/04/05 06:30:15;;;;;;;0.17;0.17;;;;;;;10.36;62.70;98770.81;6304919;22;20003;-75
2022/04/05 06:32:41;;;;;;;0.00;0.00;;;;;;;10.33;62.93;98770.53;6305206;22;20452;-75
2022/04/05 06:35:07;;;;;;;0.00;0.00;;;;;;;10.35;63.05;98773.69;6305085;22;20010;-75
2022/04/05 06:37:35;;;;;;;5.82;0.75;;;;;;;10.30;62.38;98771.91;6305158;22;20022;-76
2022/04/05 06:40:02;;;;;;;0.08;0.08;;;;;;;10.32;62.36;98774.28;6277940;22;20428;-75
2022/04/05 06:42:29;;;;;;;0.55;0.55;;;;;;;10.36;62.97;98780.66;6301571;22;20483;-75
2022/04/05 06:44:54;;;;;;;0.00;0.00;;;;;;;10.43;62.39;98772.34;6303930;22;20376;-75
2022/04/05 06:47:20;;;;;;;0.00;0.00;;;;;;;10.59;62.25;98776.47;6304766;22;20034;-75
2022/04/05 06:49:45;;;;;;;0.28;0.28;;;;;;;10.59;62.06;98779.13;6277370;22;20003;-76
2022/04/05 06:52:11;;;;;;;0.13;0.10;;;;;;;10.64;62.13;98776.41;6304377;22;20440;-75
2022/04/05 06:54:36;;;;;;;0.00;0.00;;;;;;;10.67;62.33;98780.41;6304501;22;20469;-75
2022/04/05 06:57:02;;;;;;;0.00;0.00;;;;;;;10.69;61.51;98779.03;6304263;22;20376;-75
2022/04/05 06:59:27;;;;;;;0.45;0.45;;;;;;;10.78;61.90;98784.56;6304037;22;20007;-74
2022/04/05 07:01:53;;;;;;;0.00;0.00;;;;;;;10.90;61.68;98786.84;6303799;22;20437;-76
2022/04/05 07:04:18;;;;;;;0.00;0.00;;;;;;;10.97;61.23;98781.16;6304040;22;20393;-76
2022/04/05 07:06:44;;;;;;;0.55;0.55;;;;;;;11.09;60.86;98781.53;6304441;22;20081;-75
2022/04/05 07:09:09;;;;;;;0.00;0.00;;;;;;;11.10;60.32;98777.00;6304267;22;20021;-75
2022/04/05 07:11:35;;;;;;;0.20;0.20;;;;;;;11.24;60.02;98783.22;6304719;22;20014;-75
2022/04/05 07:14:01;;;;;;;0.98;0.98;;;;;;;11.42;60.45;98778.22;6304404;22;19999;-76
2022/04/05 07:16:26;;;;;;;0.30;0.30;;;;;;;11.61;60.05;98775.53;6277240;22;20018;-75
2022/04/05 07:18:52;;;;;;;0.10;0.10;;;;;;;11.75;58.87;98773.72;6277341;22;20007;-76
2022/04/05 07:21:20;;;;;;;0.00;0.00;;;;;;;11.79;58.32;98773.94;6304041;22;20083;-74
2022/04/05 07:23:46;;;;;;;;;;;;;;;11.97;57.94;98778.53;6275391;22;20010;-73
2022/04/05 07:26:12;;;;;;;0.20;0.20;;;;;;;12.10;58.08;98777.00;6301135;22;19903;-74
2022/04/05 07:28:37;;;;;;;0.00;0.00;;;;;;;12.26;57.26;98788.25;6277205;22;20017;-75
2022/04/05 07:31:03;;;;;;;0.10;0.10;;;;;;;12.41;57.10;98787.19;6277080;22;20045;-75
2022/04/05 07:33:29;;;;;;;0.00;0.00;;;;;;;12.51;56.32;98783.56;6305096;22;20003;-75
2022/04/05 07:35:55;;;;;;;0.00;0.00;;;;;;;12.60;55.95;98792.53;6304305;22;20003;-75
2022/04/05 07:38:20;;;;;;;0.10;0.10;;;;;;;12.69;55.60;98789.94;6304169;22;20003;-75
2022/04/05 07:40:48;;;;;;;0.65;0.65;;;;;;;12.75;55.50;98783.38;6304472;22;20464;-74
2022/04/05 07:43:19;;;;;;;0.03;0.03;;;;;;;12.90;54.59;98779.66;6304129;22;20404;-75
2022/04/05 07:45:48;;;;;;;0.30;0.30;;;;;;;13.03;54.33;98782.63;6276983;22;20007;-75
2022/04/05 07:48:14;;;;;;;2.75;0.80;;;;;;;13.10;53.75;98783.03;6304415;22;20011;-75
2022/04/05 07:50:39;;;;;;;0.65;0.65;;;;;;;13.21;53.33;98781.72;6304051;22;20053;-75
2022/04/05 07:53:05;;;;;;;0.10;0.10;;;;;;;13.35;52.87;98786.28;6303998;22;20003;-75
2022/04/05 07:55:31;;;;;;;0.00;0.00;;;;;;;13.45;52.55;98778.84;6304487;22;20003;-75
2022/04/05 07:57:57;;;;;;;0.40;0.40;;;;;;;13.65;52.23;98786.78;6304465;22;20015;-75
2022/04/05 08:00:23;;;;;;;0.10;0.10;;;;;;;13.73;51.11;98777.97;6276610;22;20483;-75
2022/04/05 08:02:50;;;;;;;0.10;0.10;;;;;;;13.88;50.43;98776.84;6304249;22;19999;-75
2022/04/05 08:05:15;;;;;;;0.00;0.00;;;;;;;14.01;50.13;98770.63;6304019;22;20010;-75
2022/04/05 08:07:41;;;;;;;0.43;0.43;;;;;;;14.18;49.55;98772.59;6301536;22;20003;-75
2022/04/05 08:10:07;;;;;;;0.00;0.00;;;;;;;14.32;49.45;98769.88;6302461;22;20003;-75
2022/04/05 08:12:44;;;;;;;0.43;0.43;;;;;;;14.45;48.44;98778.94;6303982;22;20003;-75
2022/04/05 08:15:11;;;;;;;0.10;0.10;;;;;;;14.51;47.42;98768.84;6304376;22;20003;-75
2022/04/05 08:17:36;;;;;;;0.00;0.00;;;;;;;14.60;47.52;98769.69;6304553;22;20010;-74
2022/04/05 08:20:03;;;;;;;0.00;0.00;;;;;;;14.67;45.96;98764.69;6277187;22;20441;-74
2022/04/05 08:22:28;;;;;;;0.00;0.00;;;;;;;14.75;46.00;98773.91;6276528;22;20007;-74
2022/04/05 08:24:54;;;;;;;0.50;0.47;;;;;;;14.78;46.56;98765.22;6303938;22;20006;-75
2022/04/05 08:27:19;;;;;;;0.00;0.00;;;;;;;14.81;45.73;98764.59;6302873;22;20000;-74
2022/04/05 08:29:46;;;;;;;0.00;0.00;;;;;;;14.85;45.58;98764.75;6303712;22;20487;-75
2022/04/05 08:32:11;;;;;;;0.00;0.00;;;;;;;14.86;45.48;98755.59;6303798;22;20007;-76
2022/04/05 08:34:41;;;;;;;0.10;0.10;;;;;;;14.92;45.76;98753.56;6303997;22;20003;-76
2022/04/05 08:37:08;;;;;;;0.00;0.00;;;;;;;14.94;45.25;98748.63;6304249;22;20067;-76
2022/04/05 08:39:36;;;;;;;0.00;0.00;;;;;;;15.00;46.04;98750.06;6304236;22;20004;-75
2022/04/05 08:42:03;;;;;;;0.25;0.25;;;;;;;15.01;46.16;98741.72;6304298;22;20006;-76
2022/04/05 08:44:29;;;;;;;0.10;0.10;;;;;;;15.08;45.97;98740.44;6276827;22;20691;-76
2022/04/05 08:46:55;;;;;;;0.10;0.10;;;;;;;15.17;44.70;98741.25;6304633;22;20010;-76
2022/04/05 08:49:21;;;;;;;0.20;0.20;;;;;;;15.09;44.60;98742.81;6301449;22;20440;-76
2022/04/05 08:51:48;;;;;;;0.00;0.00;;;;;;;15.05;44.67;98739.19;6302507;22;20010;-75
2022/04/05 08:54:14;;;;;;;0.22;0.22;;;;;;;15.00;44.67;98720.44;6304021;22;20471;-75
2022/04/05 08:56:39;;;;;;;0.43;0.43;;;;;;;15.05;43.45;98725.72;6303678;22;20011;-75
2022/04/05 08:59:05;;;;;;;0.30;0.30;;;;;;;15.09;43.70;98725.84;6277105;22;20326;-76
2022/04/05 09:01:30;;;;;;;0.15;0.15;;;;;;;15.11;43.10;98721.75;6303637;22;20007;-76
2022/04/05 09:03:57;;;;;;;0.20;0.20;;;;;;;15.00;42.89;98715.06;6304248;22;20009;-76
2022/04/05 09:06:30;;;;;;;0.38;0.38;;;;;;;15.03;42.87;98719.84;6303833;22;20402;-76
2022/04/05 09:09:13;;;;;;;3.17;0.52;;;;;;;15.02;42.84;98708.25;6303885;22;20432;-76
2022/04/05 09:11:48;;;;;;;0.00;0.00;;;;;;;15.08;43.04;98713.53;6276697;22;20011;-75
2022/04/05 09:14:21;;;;;;;0.00;0.00;;;;;;;15.09;42.54;98705.13;6303507;22;20090;-76
2022/04/05 09:17:02;;;;;;;0.03;0.03;;;;;;;15.11;42.06;98708.31;6303339;22;20003;-74
2022/04/05 09:19:36;;;;;;;0.00;0.00;;;;;;;15.09;41.51;98704.31;6302731;22;20347;-76
2022/04/05 09:22:03;;;;;;;0.10;0.10;;;;;;;14.99;41.34;98697.31;6303800;22;20003;-75
2022/04/05 09:24:37;;;;;;;0.32;0.32;;;;;;;14.99;41.78;98694.63;6275799;22;20011;-73
2022/04/05 09:27:04;;;;;;;0.10;0.10;;;;;;;15.03;42.29;98695.59;6276644;22;20006;-74
2022/04/05 09:29:39;;;;;;;0.85;0.45;;;;;;;15.14;43.01;98696.88;6276312;22;20011;-74
2022/04/05 09:32:05;;;;;;;0.98;0.95;;;;;;;15.25;42.73;98696.59;6273281;22;20090;-73
2022/04/05 09:34:31;;;;;;;0.00;0.00;;;;;;;15.29;41.69;98689.47;6274051;22;20585;-74
2022/04/05 09:36:56;;;;;;;0.10;0.10;;;;;;;15.36;41.89;98681.69;6276365;22;20003;-76
2022/04/05 09:39:26;;;;;;;0.00;0.00;;;;;;;15.51;42.22;98683.94;6303375;22;20003;-75
2022/04/05 09:42:03;;;;;;;0.00;0.00;;;;;;;15.64;41.07;98679.47;6276347;22;19999;-75
2022/04/05 09:44:40;;;;;;;0.00;0.00;;;;;;;15.83;40.62;98681.84;6275420;22;20014;-75
2022/04/05 09:47:21;;;;;;;0.00;0.00;;;;;;;15.96;40.54;98677.38;6278119;22;20498;-75
2022/04/05 09:49:48;;;;;;;0.10;0.10;;;;;;;16.09;40.13;98678.31;6305149;22;20003;-75
2022/04/05 09:52:26;;;;;;;0.00;0.00;;;;;;;16.19;40.12;98679.09;6305890;22;20053;-75
2022/04/05 09:54:52;;;;;;;0.28;0.28;;;;;;;16.23;40.04;98678.09;6278170;22;20034;-75
2022/04/05 09:57:32;;;;;;;0.10;0.10;;;;;;;16.27;40.61;98673.66;6277635;22;20011;-76
2022/04/05 10:00:12;;;;;;;0.10;0.10;;;;;;;16.33;40.61;98666.97;6305256;22;20007;-75
2022/04/05 10:03:02;;;;;;;0.05;0.05;;;;;;;16.47;39.60;98672.16;6305387;22;20114;-75
2022/04/05 10:05:29;;;;;;;0.00;0.00;;;;;;;16.52;39.89;98673.09;6277629;22;20471;-76
2022/04/05 10:07:56;;;;;;;0.10;0.10;;;;;;;16.47;39.06;98661.34;6305428;22;20003;-75
2022/04/05 10:10:23;;;;;;;0.13;0.13;;;;;;;16.35;38.88;98663.16;6277845;22;20003;-75
2022/04/05 10:12:50;;;;;;;0.00;0.00;;;;;;;16.26;38.74;98665.88;6277959;22;20003;-75
2022/04/05 10:15:16;;;;;;;0.05;0.05;;;;;;;16.09;38.91;98659.44;6302273;22;20007;-76
2022/04/05 10:17:45;;;;;;;0.05;0.05;;;;;;;15.94;39.95;98641.88;6275981;22;20348;-74
2022/04/05 10:20:12;;;;;;;0.10;0.10;;;;;;;15.95;40.15;98639.94;6304983;22;20007;-75
2022/04/05 10:22:41;;;;;;;0.10;0.10;;;;;;;15.99;39.44;98646.28;6304887;22;20004;-76
2022/04/05 10:25:08;;;;;;;0.28;0.28;;;;;;;15.93;39.42;98634.09;6305554;22;20067;-75
2022/04/05 10:27:33;;;;;;;0.10;0.10;;;;;;;15.98;39.26;98642.81;6304827;22;20003;-76
2022/04/05 10:30:05;;;;;;;0.00;0.00;;;;;;;15.97;39.30;98635.81;6305425;22;20010;-75
2022/04/05 10:32:41;;;;;;;0.63;0.63;;;;;;;15.96;38.84;98634.22;6304932;22;20007;-75
2022/04/05 10:35:08;;;;;;;0.00;0.00;;;;;;;15.94;38.54;98633.78;6305658;22;19999;-75
2022/04/05 10:37:41;;;;;;;0.00;0.00;;;;;;;15.95;38.48;98623.78;6305103;22;20433;-75
2022/04/05 10:40:09;;;;;;;0.00;0.00;;;;;;;15.94;39.60;98624.88;6305694;22;20060;-75
2022/04/05 10:42:42;;;;;;;0.10;0.10;;;;;;;15.99;39.37;98625.50;6305307;22;20443;-75
2022/04/05 10:45:21;;;;;;;0.00;0.00;;;;;;;16.03;38.37;98622.16;6305482;22;20356;-75
2022/04/05 10:48:00;;;;;;;0.10;0.10;;;;;;;15.98;38.75;98620.44;6305322;22;20003;-75
2022/04/05 10:50:28;;;;;;;0.10;0.10;;;;;;;16.02;38.70;98617.91;6305450;22;20003;-75
2022/04/05 10:53:20;;;;;;;2.72;0.77;;;;;;;16.03;38.11;98609.47;6304701;22;20029;-75
2022/04/05 10:56:05;;;;;;;0.00;0.00;;;;;;;16.05;38.42;98607.25;6285707;22;20015;-75
2022/04/05 10:58:32;;;;;;;0.52;0.52;;;;;;;16.00;37.74;98599.31;6301541;22;20437;-75
2022/04/05 11:01:18;;;;;;;0.00;0.00;;;;;;;16.13;37.57;98606.41;6303428;22;20010;-74
2022/04/05 11:04:13;;;;;;;0.00;0.00;;;;;;;16.24;37.82;98596.06;6305319;22;20003;-75
2022/04/05 11:06:58;;;;;;;0.03;0.03;;;;;;;16.16;37.40;98586.09;6305053;22;20005;-75
2022/04/05 11:09:26;;;;;;;0.10;0.10;;;;;;;16.19;37.60;98580.06;6304770;22;20010;-75
2022/04/05 11:11:55;;;;;;;0.10;0.10;;;;;;;16.20;38.40;98576.25;6305164;22;20053;-75
2022/04/05 11:14:58;;;;;;;0.10;0.10;;;;;;;16.32;38.44;98570.16;6304770;22;20057;-75
2022/04/05 11:17:26;;;;;;;0.00;0.00;;;;;;;16.43;38.63;98567.84;6224555;22;20043;-76
2022/04/05 11:19:55;;;;;;;0.03;0.03;;;;;;;16.49;37.84;98561.19;6305420;22;20006;-75
2022/04/05 11:22:20;;;;;;;0.30;0.30;;;;;;;16.54;37.79;98560.97;6277183;22;20368;-75
2022/04/05 11:24:57;;;;;;;0.10;0.10;;;;;;;16.63;37.73;98555.53;6304698;22;19999;-74
2022/04/05 11:27:31;;;;;;;0.10;0.10;;;;;;;16.65;37.44;98556.00;6304778;22;20007;-74
2022/04/05 11:30:27;;;;;;;0.00;0.00;;;;;;;16.73;36.39;98548.94;6277815;22;20030;-75
2022/04/05 11:33:14;;;;;;;0.00;0.00;;;;;;;16.72;36.13;98548.16;6305040;22;20160;-74
2022/04/05 11:35:59;;;;;;;0.10;0.10;;;;;;;16.74;36.88;98534.31;6277453;22;20009;-74
2022/04/05 11:38:56;;;;;;;0.00;0.00;;;;;;;16.70;36.77;98536.09;6277273;22;20279;-74
2022/04/05 11:41:28;;;;;;;0.65;0.55;;;;;;;16.77;36.30;98537.16;6273327;22;20026;-74